sensor_id;sensor_type;location;lat;lon;timestamp;pressure;altitude;pressure_sealevel;temperature;humidity
29907;BME280;16776;50.958;10.994;2023-04-28T00:00:32;98587.75;;;8.17;77.60
29907;BME280;16776;50.958;10.994;2023-04-28T00:02:59;98583.50;;;8.15;77.01
29907;BME280;16776;50.958;10.994;2023-04-28T00:05:25;98577.53;;;8.14;77.16
29907;BME280;16776;50.958;10.994;2023-04-28T00:07:53;98574.13;;;8.14;78.15
29907;BME280;16776;50.958;10.994;2023-04-28T00:10:20;98572.47;;;8.10;77.05
29907;BME280;16776;50.958;10.994;2023-04-28T00:12:46;98575.06;;;8.08;78.23
29907;BME280;16776;50.958;10.994;2023-04-28T00:15:13;98569.09;;;8.06;77.97
29907;BME280;16776;50.958;10.994;2023-04-28T00:17:40;98572.56;;;8.04;78.22
29907;BME280;16776;50.958;10.994;2023-04-28T00:20:08;98562.34;;;8.02;78.55
29907;BME280;16776;50.958;10.994;2023-04-28T00:22:35;98558.09;;;8.00;77.66
29907;BME280;16776;50.958;10.994;2023-04-28T00:25:03;98566.63;;;8.02;78.35
29907;BME280;16776;50.958;10.994;2023-04-28T00:27:31;98551.31;;;7.99;78.75
29907;BME280;16776;50.958;10.994;2023-04-28T00:29:58;98552.22;;;7.95;78.58
29907;BME280;16776;50.958;10.994;2023-04-28T00:32:25;98545.44;;;7.92;78.50
29907;BME280;16776;50.958;10.994;2023-04-28T00:34:51;98550.59;;;7.89;77.88
29907;BME280;16776;50.958;10.994;2023-04-28T00:37:18;98547.19;;;7.87;77.81
29907;BME280;16776;50.958;10.994;2023-04-28T00:39:45;98546.41;;;7.85;78.09
29907;BME280;16776;50.958;10.994;2023-04-28T00:42:13;98538.72;;;7.85;78.39
29907;BME280;16776;50.958;10.994;2023-04-28T00:44:40;98523.56;;;7.71;79.16
29907;BME280;16776;50.958;10.994;2023-04-28T00:47:07;98532.00;;;7.78;78.96
29907;BME280;16776;50.958;10.994;2023-04-28T00:49:34;98520.03;;;7.77;78.82
29907;BME280;16776;50.958;10.994;2023-04-28T00:52:05;98522.59;;;7.78;78.62
29907;BME280;16776;50.958;10.994;2023-04-28T00:54:32;98517.56;;;7.72;78.47
29907;BME280;16776;50.958;10.994;2023-04-28T00:57:00;98523.56;;;7.71;78.55
29907;BME280;16776;50.958;10.994;2023-04-28T00:59:29;98511.63;;;7.69;79.15
29907;BME280;16776;50.958;10.994;2023-04-28T01:01:55;98505.72;;;7.65;79.30
29907;BME280;16776;50.958;10.994;2023-04-28T01:04:22;98516.00;;;7.64;78.99
29907;BME280;16776;50.958;10.994;2023-04-28T01:06:51;98508.28;;;7.65;79.41
29907;BME280;16776;50.958;10.994;2023-04-28T01:09:18;98495.59;;;7.58;79.94
29907;BME280;16776;50.958;10.994;2023-04-28T01:11:45;98500.72;;;7.59;79.07
29907;BME280;16776;50.958;10.994;2023-04-28T01:14:12;98503.31;;;7.55;79.16
29907;BME280;16776;50.958;10.994;2023-04-28T01:16:40;98504.97;;;7.60;79.75
29907;BME280;16776;50.958;10.994;2023-04-28T01:19:07;98499.88;;;7.57;79.42
29907;BME280;16776;50.958;10.994;2023-04-28T01:21:33;98491.34;;;7.55;79.02
29907;BME280;16776;50.958;10.994;2023-04-28T01:24:01;98473.53;;;7.49;79.33
29907;BME280;16776;50.958;10.994;2023-04-28T01:26:28;98490.56;;;7.53;80.09
29907;BME280;16776;50.958;10.994;2023-04-28T01:28:54;98485.44;;;7.52;79.63
29907;BME280;16776;50.958;10.994;2023-04-28T01:31:21;98491.47;;;7.49;78.85
29907;BME280;16776;50.958;10.994;2023-04-28T01:33:48;98493.25;;;7.45;79.54
29907;BME280;16776;50.958;10.994;2023-04-28T01:36:14;98496.63;;;7.48;79.00
29907;BME280;16776;50.958;10.994;2023-04-28T01:38:41;98486.41;;;7.44;79.80
29907;BME280;16776;50.958;10.994;2023-04-28T01:41:09;98479.56;;;7.47;80.13
29907;BME280;16776;50.958;10.994;2023-04-28T01:43:35;98479.59;;;7.43;80.61
29907;BME280;16776;50.958;10.994;2023-04-28T01:46:02;98477.03;;;7.43;79.54
29907;BME280;16776;50.958;10.994;2023-04-28T01:48:28;98476.19;;;7.43;79.82
29907;BME280;16776;50.958;10.994;2023-04-28T01:50:55;98473.69;;;7.41;80.45
29907;BME280;16776;50.958;10.994;2023-04-28T01:53:22;98479.66;;;7.40;79.09
29907;BME280;16776;50.958;10.994;2023-04-28T01:55:48;98477.97;;;7.39;79.76
29907;BME280;16776;50.958;10.994;2023-04-28T01:58:17;98470.28;;;7.39;79.91
29907;BME280;16776;50.958;10.994;2023-04-28T02:00:44;98469.47;;;7.37;80.09
29907;BME280;16776;50.958;10.994;2023-04-28T02:03:10;98458.34;;;7.37;80.12
29907;BME280;16776;50.958;10.994;2023-04-28T02:05:37;98446.47;;;7.34;80.46
29907;BME280;16776;50.958;10.994;2023-04-28T02:08:04;98445.63;;;7.34;80.48
29907;BME280;16776;50.958;10.994;2023-04-28T02:10:33;98443.84;;;7.36;79.92
29907;BME280;16776;50.958;10.994;2023-04-28T02:13:00;98449.91;;;7.32;80.38
29907;BME280;16776;50.958;10.994;2023-04-28T02:15:28;98442.22;;;7.32;80.38
29907;BME280;16776;50.958;10.994;2023-04-28T02:17:54;98443.13;;;7.29;80.33
29907;BME280;16776;50.958;10.994;2023-04-28T02:20:21;98438.03;;;7.28;80.38
29907;BME280;16776;50.958;10.994;2023-04-28T02:22:48;98436.34;;;7.27;80.18
29907;BME280;16776;50.958;10.994;2023-04-28T02:25:14;98432.09;;;7.24;80.68
29907;BME280;16776;50.958;10.994;2023-04-28T02:27:41;98432.97;;;7.23;79.75
29907;BME280;16776;50.958;10.994;2023-04-28T02:30:08;98430.41;;;7.23;80.25
29907;BME280;16776;50.958;10.994;2023-04-28T02:32:36;98428.69;;;7.25;80.57
29907;BME280;16776;50.958;10.994;2023-04-28T02:35:02;98432.16;;;7.21;79.66
29907;BME280;16776;50.958;10.994;2023-04-28T02:37:29;98432.16;;;7.21;81.02
29907;BME280;16776;50.958;10.994;2023-04-28T02:39:56;98431.34;;;7.19;80.27
29907;BME280;16776;50.958;10.994;2023-04-28T02:42:22;98426.25;;;7.18;80.61
29907;BME280;16776;50.958;10.994;2023-04-28T02:44:49;98432.22;;;7.17;79.74
29907;BME280;16776;50.958;10.994;2023-04-28T02:47:15;98425.44;;;7.14;80.96
29907;BME280;16776;50.958;10.994;2023-04-28T02:49:43;98423.69;;;7.16;80.93
29907;BME280;16776;50.958;10.994;2023-04-28T02:52:10;98418.63;;;7.13;81.17
29907;BME280;16776;50.958;10.994;2023-04-28T02:54:36;98421.22;;;7.12;80.84
29907;BME280;16776;50.958;10.994;2023-04-28T02:57:03;98422.91;;;7.13;80.03
29907;BME280;16776;50.958;10.994;2023-04-28T02:59:29;98411.81;;;7.12;80.95
29907;BME280;16776;50.958;10.994;2023-04-28T03:01:56;98410.09;;;7.13;80.23
29907;BME280;16776;50.958;10.994;2023-04-28T03:04:23;98408.41;;;7.13;81.84
29907;BME280;16776;50.958;10.994;2023-04-28T03:06:54;98400.63;;;7.18;81.23
29907;BME280;16776;50.958;10.994;2023-04-28T03:09:20;98394.75;;;7.13;81.20
29907;BME280;16776;50.958;10.994;2023-04-28T03:11:47;98387.06;;;7.13;81.05
29907;BME280;16776;50.958;10.994;2023-04-28T03:14:13;98376.81;;;7.13;81.23
29907;BME280;16776;50.958;10.994;2023-04-28T03:16:40;98375.13;;;7.12;81.11
29907;BME280;16776;50.958;10.994;2023-04-28T03:19:06;98371.72;;;7.11;81.30
29907;BME280;16776;50.958;10.994;2023-04-28T03:21:33;98375.19;;;7.09;81.55
29907;BME280;16776;50.958;10.994;2023-04-28T03:24:01;98370.88;;;7.11;80.71
29907;BME280;16776;50.958;10.994;2023-04-28T03:26:27;98370.09;;;7.07;81.61
29907;BME280;16776;50.958;10.994;2023-04-28T03:28:54;98366.69;;;7.07;81.34
29907;BME280;16776;50.958;10.994;2023-04-28T03:31:21;98370.94;;;7.06;82.11
29907;BME280;16776;50.958;10.994;2023-04-28T03:33:48;98370.94;;;7.06;80.68
29907;BME280;16776;50.958;10.994;2023-04-28T03:36:15;98369.25;;;7.05;81.28
29907;BME280;16776;50.958;10.994;2023-04-28T03:38:41;98366.69;;;7.05;81.78
29907;BME280;16776;50.958;10.994;2023-04-28T03:41:09;98359.88;;;7.05;82.08
29907;BME280;16776;50.958;10.994;2023-04-28T03:43:36;98359.00;;;7.05;81.34
29907;BME280;16776;50.958;10.994;2023-04-28T03:46:02;98362.44;;;7.04;81.14
29907;BME280;16776;50.958;10.994;2023-04-28T03:48:29;98352.19;;;7.04;81.42
29907;BME280;16776;50.958;10.994;2023-04-28T03:50:56;98351.34;;;7.03;81.36
29907;BME280;16776;50.958;10.994;2023-04-28T03:53:22;98350.53;;;7.03;81.55
29907;BME280;16776;50.958;10.994;2023-04-28T03:55:49;98354.75;;;7.04;81.47
29907;BME280;16776;50.958;10.994;2023-04-28T03:58:17;98353.09;;;7.03;82.46
29907;BME280;16776;50.958;10.994;2023-04-28T04:00:44;98348.88;;;6.99;82.50
29907;BME280;16776;50.958;10.994;2023-04-28T04:03:10;98348.91;;;6.97;81.83
29907;BME280;16776;50.958;10.994;2023-04-28T04:05:38;98343.75;;;6.99;82.44
29907;BME280;16776;50.958;10.994;2023-04-28T04:08:05;98337.84;;;6.95;81.56
29907;BME280;16776;50.958;10.994;2023-04-28T04:10:31;98334.44;;;6.95;82.01
29907;BME280;16776;50.958;10.994;2023-04-28T04:12:58;98334.44;;;6.95;82.07
29907;BME280;16776;50.958;10.994;2023-04-28T04:15:26;98327.63;;;6.95;81.83
29907;BME280;16776;50.958;10.994;2023-04-28T04:17:53;98317.41;;;6.94;82.50
29907;BME280;16776;50.958;10.994;2023-04-28T04:20:19;98325.06;;;6.94;82.59
29907;BME280;16776;50.958;10.994;2023-04-28T04:22:46;98321.66;;;6.93;82.75
29907;BME280;16776;50.958;10.994;2023-04-28T04:25:12;98320.81;;;6.93;82.82
29907;BME280;16776;50.958;10.994;2023-04-28T04:27:39;98325.06;;;6.94;82.03
29907;BME280;16776;50.958;10.994;2023-04-28T04:30:07;98335.31;;;6.94;84.06
29907;BME280;16776;50.958;10.994;2023-04-28T04:32:35;98330.09;;;7.00;86.01
29907;BME280;16776;50.958;10.994;2023-04-28T04:35:01;98333.25;;;7.14;85.85
29907;BME280;16776;50.958;10.994;2023-04-28T04:37:29;98326.91;;;7.35;85.74
29907;BME280;16776;50.958;10.994;2023-04-28T04:39:55;98328.31;;;7.51;84.27
29907;BME280;16776;50.958;10.994;2023-04-28T04:42:22;98324.63;;;7.64;84.16
29907;BME280;16776;50.958;10.994;2023-04-28T04:44:49;98313.38;;;7.71;84.44
29907;BME280;16776;50.958;10.994;2023-04-28T04:47:15;98316.69;;;7.76;83.63
29907;BME280;16776;50.958;10.994;2023-04-28T04:49:44;98310.69;;;7.77;82.83
29907;BME280;16776;50.958;10.994;2023-04-28T04:52:11;98314.22;;;7.73;82.53
29907;BME280;16776;50.958;10.994;2023-04-28T04:54:38;98315.97;;;7.70;82.69
29907;BME280;16776;50.958;10.994;2023-04-28T04:57:05;98328.03;;;7.65;83.36
29907;BME280;16776;50.958;10.994;2023-04-28T04:59:32;98295.88;;;7.50;82.96
29907;BME280;16776;50.958;10.994;2023-04-28T05:01:58;98317.97;;;7.56;83.12
29907;BME280;16776;50.958;10.994;2023-04-28T05:04:25;98313.78;;;7.52;83.26
29907;BME280;16776;50.958;10.994;2023-04-28T05:06:53;98317.22;;;7.51;83.14
29907;BME280;16776;50.958;10.994;2023-04-28T05:09:19;98321.59;;;7.45;83.66
29907;BME280;16776;50.958;10.994;2023-04-28T05:11:47;98311.38;;;7.42;84.11
29907;BME280;16776;50.958;10.994;2023-04-28T05:14:13;98304.63;;;7.40;83.91
29907;BME280;16776;50.958;10.994;2023-04-28T05:16:41;98300.38;;;7.37;83.38
29907;BME280;16776;50.958;10.994;2023-04-28T05:19:08;98299.56;;;7.35;83.42
29907;BME280;16776;50.958;10.994;2023-04-28T05:21:34;98303.03;;;7.34;83.88
29907;BME280;16776;50.958;10.994;2023-04-28T05:24:03;98303.81;;;7.36;83.64
29907;BME280;16776;50.958;10.994;2023-04-28T05:26:29;98309.00;;;7.33;83.75
29907;BME280;16776;50.958;10.994;2023-04-28T05:28:56;98308.13;;;7.34;83.82
29907;BME280;16776;50.958;10.994;2023-04-28T05:31:23;98301.31;;;7.35;83.91
29907;BME280;16776;50.958;10.994;2023-04-28T05:33:49;98298.75;;;7.35;84.24
29907;BME280;16776;50.958;10.994;2023-04-28T05:36:16;98296.97;;;7.37;84.50
29907;BME280;16776;50.958;10.994;2023-04-28T05:38:42;98294.44;;;7.35;84.81
29907;BME280;16776;50.958;10.994;2023-04-28T05:41:10;98295.16;;;7.42;84.38
29907;BME280;16776;50.958;10.994;2023-04-28T05:43:37;98293.44;;;7.42;84.18
29907;BME280;16776;50.958;10.994;2023-04-28T05:46:04;98303.69;;;7.42;84.15
29907;BME280;16776;50.958;10.994;2023-04-28T05:48:30;98314.75;;;7.44;84.79
29907;BME280;16776;50.958;10.994;2023-04-28T05:50:57;98314.75;;;7.46;84.74
29907;BME280;16776;50.958;10.994;2023-04-28T05:53:23;98309.63;;;7.46;84.57
29907;BME280;16776;50.958;10.994;2023-04-28T05:55:51;98311.25;;;7.49;84.79
29907;BME280;16776;50.958;10.994;2023-04-28T05:58:18;98315.47;;;7.53;85.14
29907;BME280;16776;50.958;10.994;2023-04-28T06:00:45;98313.75;;;7.53;84.58
29907;BME280;16776;50.958;10.994;2023-04-28T06:03:12;98312.84;;;7.56;84.70
29907;BME280;16776;50.958;10.994;2023-04-28T06:05:39;98320.47;;;7.59;85.22
29907;BME280;16776;50.958;10.994;2023-04-28T06:08:06;98313.56;;;7.62;85.54
29907;BME280;16776;50.958;10.994;2023-04-28T06:10:33;98308.38;;;7.65;85.03
29907;BME280;16776;50.958;10.994;2023-04-28T06:12:59;98306.59;;;7.69;86.03
29907;BME280;16776;50.958;10.994;2023-04-28T06:15:28;98309.91;;;7.74;85.16
29907;BME280;16776;50.958;10.994;2023-04-28T06:17:54;98314.16;;;7.75;84.89
29907;BME280;16776;50.958;10.994;2023-04-28T06:20:21;98313.28;;;7.76;85.26
29907;BME280;16776;50.958;10.994;2023-04-28T06:22:47;98316.66;;;7.78;84.58
29907;BME280;16776;50.958;10.994;2023-04-28T06:25:14;98309.81;;;7.80;84.80
29907;BME280;16776;50.958;10.994;2023-04-28T06:27:40;98303.78;;;7.81;85.19
29907;BME280;16776;50.958;10.994;2023-04-28T06:30:08;98300.34;;;7.82;85.06
29907;BME280;16776;50.958;10.994;2023-04-28T06:32:36;98303.72;;;7.84;85.33
29907;BME280;16776;50.958;10.994;2023-04-28T06:35:03;98300.31;;;7.83;85.12
29907;BME280;16776;50.958;10.994;2023-04-28T06:37:30;98301.97;;;7.86;85.68
29907;BME280;16776;50.958;10.994;2023-04-28T06:39:56;98299.34;;;7.89;85.60
29907;BME280;16776;50.958;10.994;2023-04-28T06:42:23;98295.91;;;7.90;85.69
29907;BME280;16776;50.958;10.994;2023-04-28T06:44:49;98292.44;;;7.93;85.74
29907;BME280;16776;50.958;10.994;2023-04-28T06:47:16;98298.34;;;7.96;86.45
29907;BME280;16776;50.958;10.994;2023-04-28T06:49:44;98289.69;;;8.00;86.23
29907;BME280;16776;50.958;10.994;2023-04-28T06:52:14;98276.00;;;8.01;85.75
29907;BME280;16776;50.958;10.994;2023-04-28T06:54:40;98269.94;;;8.05;86.58
29907;BME280;16776;50.958;10.994;2023-04-28T06:57:07;98273.28;;;8.07;86.51
29907;BME280;16776;50.958;10.994;2023-04-28T06:59:34;98268.16;;;8.07;86.84
29907;BME280;16776;50.958;10.994;2023-04-28T07:02:00;98261.31;;;8.08;86.87
29907;BME280;16776;50.958;10.994;2023-04-28T07:04:27;98263.00;;;8.09;86.89
29907;BME280;16776;50.958;10.994;2023-04-28T07:06:55;98258.69;;;8.11;86.95
29907;BME280;16776;50.958;10.994;2023-04-28T07:09:22;98264.72;;;8.08;87.02
29907;BME280;16776;50.958;10.994;2023-04-28T07:11:48;98262.13;;;8.10;87.51
29907;BME280;16776;50.958;10.994;2023-04-28T07:14:15;98268.09;;;8.10;87.00
29907;BME280;16776;50.958;10.994;2023-04-28T07:16:42;98246.03;;;8.03;87.31
29907;BME280;16776;50.958;10.994;2023-04-28T07:19:08;98267.22;;;8.11;87.04
29907;BME280;16776;50.958;10.994;2023-04-28T07:21:35;98254.38;;;8.13;87.67
29907;BME280;16776;50.958;10.994;2023-04-28T07:24:03;98254.31;;;8.16;88.01
29907;BME280;16776;50.958;10.994;2023-04-28T07:26:29;98255.16;;;8.18;87.44
29907;BME280;16776;50.958;10.994;2023-04-28T07:28:56;98246.53;;;8.20;87.46
29907;BME280;16776;50.958;10.994;2023-04-28T07:31:22;98260.13;;;8.24;87.74
29907;BME280;16776;50.958;10.994;2023-04-28T07:33:50;98268.59;;;8.28;87.09
29907;BME280;16776;50.958;10.994;2023-04-28T07:36:16;98271.94;;;8.31;87.61
29907;BME280;16776;50.958;10.994;2023-04-28T07:38:43;98268.44;;;8.34;86.96
29907;BME280;16776;50.958;10.994;2023-04-28T07:41:11;98269.16;;;8.39;87.00
29907;BME280;16776;50.958;10.994;2023-04-28T07:43:38;98261.44;;;8.40;87.89
29907;BME280;16776;50.958;10.994;2023-04-28T07:46:05;98263.97;;;8.43;87.22
29907;BME280;16776;50.958;10.994;2023-04-28T07:48:32;98268.13;;;8.47;87.43
29907;BME280;16776;50.958;10.994;2023-04-28T07:50:59;98262.09;;;8.50;88.30
29907;BME280;16776;50.958;10.994;2023-04-28T07:53:26;98266.28;;;8.52;88.63
29907;BME280;16776;50.958;10.994;2023-04-28T07:55:53;98267.06;;;8.56;88.49
29907;BME280;16776;50.958;10.994;2023-04-28T07:58:21;98267.78;;;8.61;88.01
29907;BME280;16776;50.958;10.994;2023-04-28T08:00:47;98266.06;;;8.61;88.59
29907;BME280;16776;50.958;10.994;2023-04-28T08:03:14;98265.13;;;8.64;88.60
29907;BME280;16776;50.958;10.994;2023-04-28T08:05:41;98267.66;;;8.65;88.55
29907;BME280;16776;50.958;10.994;2023-04-28T08:08:09;98274.50;;;8.67;88.06
29907;BME280;16776;50.958;10.994;2023-04-28T08:10:37;98273.63;;;8.68;88.33
29907;BME280;16776;50.958;10.994;2023-04-28T08:13:06;98272.75;;;8.69;88.89
29907;BME280;16776;50.958;10.994;2023-04-28T08:15:36;98278.56;;;8.75;88.40
29907;BME280;16776;50.958;10.994;2023-04-28T08:18:03;98273.59;;;8.69;88.78
29907;BME280;16776;50.958;10.994;2023-04-28T08:20:30;98270.19;;;8.69;89.00
29907;BME280;16776;50.958;10.994;2023-04-28T08:22:57;98249.88;;;8.58;88.42
29907;BME280;16776;50.958;10.994;2023-04-28T08:25:24;98266.75;;;8.68;89.50
29907;BME280;16776;50.958;10.994;2023-04-28T08:27:50;98262.50;;;8.67;88.70
29907;BME280;16776;50.958;10.994;2023-04-28T08:30:17;98257.41;;;8.65;88.87
29907;BME280;16776;50.958;10.994;2023-04-28T08:32:45;98250.53;;;8.66;89.53
29907;BME280;16776;50.958;10.994;2023-04-28T08:35:12;98242.94;;;8.63;89.04
29907;BME280;16776;50.958;10.994;2023-04-28T08:37:39;98243.81;;;8.62;89.02
29907;BME280;16776;50.958;10.994;2023-04-28T08:40:07;98254.13;;;8.60;89.37
29907;BME280;16776;50.958;10.994;2023-04-28T08:42:35;98255.84;;;8.60;89.48
29907;BME280;16776;50.958;10.994;2023-04-28T08:45:03;98256.75;;;8.57;90.14
29907;BME280;16776;50.958;10.994;2023-04-28T08:47:32;98254.97;;;8.61;90.19
29907;BME280;16776;50.958;10.994;2023-04-28T08:50:07;98246.47;;;8.57;90.61
29907;BME280;16776;50.958;10.994;2023-04-28T08:52:34;98250.72;;;8.58;90.23
29907;BME280;16776;50.958;10.994;2023-04-28T08:55:05;98251.41;;;8.65;90.42
29907;BME280;16776;50.958;10.994;2023-04-28T08:57:37;98239.41;;;8.67;90.31
29907;BME280;16776;50.958;10.994;2023-04-28T09:00:06;98236.88;;;8.65;90.86
29907;BME280;16776;50.958;10.994;2023-04-28T09:02:33;98233.44;;;8.65;91.00
29907;BME280;16776;50.958;10.994;2023-04-28T09:05:01;98236.84;;;8.67;90.71
29907;BME280;16776;50.958;10.994;2023-04-28T09:07:30;98226.53;;;8.69;90.46
29907;BME280;16776;50.958;10.994;2023-04-28T09:10:17;98233.13;;;8.77;91.04
29907;BME280;16776;50.958;10.994;2023-04-28T09:12:44;98227.41;;;8.68;91.09
29907;BME280;16776;50.958;10.994;2023-04-28T09:15:24;98226.38;;;8.75;91.68
29907;BME280;16776;50.958;10.994;2023-04-28T09:17:54;98234.16;;;8.72;91.20
29907;BME280;16776;50.958;10.994;2023-04-28T09:20:21;98239.25;;;8.73;91.83
29907;BME280;16776;50.958;10.994;2023-04-28T09:22:50;98247.63;;;8.80;91.54
29907;BME280;16776;50.958;10.994;2023-04-28T09:25:18;98244.22;;;8.79;91.29
29907;BME280;16776;50.958;10.994;2023-04-28T09:27:46;98224.69;;;8.74;92.06
29907;BME280;16776;50.958;10.994;2023-04-28T09:30:12;98233.78;;;8.85;91.71
29907;BME280;16776;50.958;10.994;2023-04-28T09:32:39;98222.63;;;8.88;91.91
29907;BME280;16776;50.958;10.994;2023-04-28T09:35:06;98214.03;;;8.89;92.17
29907;BME280;16776;50.958;10.994;2023-04-28T09:37:34;98213.94;;;8.92;92.04
29907;BME280;16776;50.958;10.994;2023-04-28T09:40:08;98197.47;;;8.99;92.35
29907;BME280;16776;50.958;10.994;2023-04-28T09:42:37;98197.53;;;8.96;92.37
29907;BME280;16776;50.958;10.994;2023-04-28T09:45:05;98194.06;;;8.98;92.38
29907;BME280;16776;50.958;10.994;2023-04-28T09:47:33;98194.03;;;9.00;92.56
29907;BME280;16776;50.958;10.994;2023-04-28T09:50:01;98199.94;;;9.02;92.47
29907;BME280;16776;50.958;10.994;2023-04-28T09:52:28;98197.34;;;9.03;92.53
29907;BME280;16776;50.958;10.994;2023-04-28T09:54:55;98187.00;;;9.07;93.02
29907;BME280;16776;50.958;10.994;2023-04-28T09:57:23;98186.88;;;9.11;93.24
29907;BME280;16776;50.958;10.994;2023-04-28T09:59:51;98179.09;;;9.14;93.18
29907;BME280;16776;50.958;10.994;2023-04-28T10:02:19;98179.03;;;9.16;93.48
29907;BME280;16776;50.958;10.994;2023-04-28T10:04:47;98184.91;;;9.21;92.68
29907;BME280;16776;50.958;10.994;2023-04-28T10:07:15;98180.50;;;9.24;93.44
29907;BME280;16776;50.958;10.994;2023-04-28T10:09:42;98193.31;;;9.26;93.23
29907;BME280;16776;50.958;10.994;2023-04-28T10:12:12;98187.28;;;9.27;93.25
29907;BME280;16776;50.958;10.994;2023-04-28T10:14:40;98191.44;;;9.31;93.20
29907;BME280;16776;50.958;10.994;2023-04-28T10:17:09;98188.00;;;9.32;93.67
29907;BME280;16776;50.958;10.994;2023-04-28T10:19:36;98187.13;;;9.33;93.74
29907;BME280;16776;50.958;10.994;2023-04-28T10:22:19;98182.59;;;9.41;94.21
29907;BME280;16776;50.958;10.994;2023-04-28T10:25:07;98179.06;;;9.45;93.94
29907;BME280;16776;50.958;10.994;2023-04-28T10:27:39;98169.00;;;9.37;93.34
29907;BME280;16776;50.958;10.994;2023-04-28T10:30:13;98171.41;;;9.43;94.25
29907;BME280;16776;50.958;10.994;2023-04-28T10:32:41;98172.38;;;9.39;93.98
29907;BME280;16776;50.958;10.994;2023-04-28T10:35:41;98159.25;;;9.49;94.56
29907;BME280;16776;50.958;10.994;2023-04-28T10:38:09;98168.97;;;9.39;93.94
29907;BME280;16776;50.958;10.994;2023-04-28T10:40:38;98157.84;;;9.38;94.27
29907;BME280;16776;50.958;10.994;2023-04-28T10:43:05;98159.53;;;9.39;94.51
29907;BME280;16776;50.958;10.994;2023-04-28T10:45:59;98149.81;;;9.49;95.05
29907;BME280;16776;50.958;10.994;2023-04-28T10:48:54;98143.78;;;9.50;95.39
29907;BME280;16776;50.958;10.994;2023-04-28T10:51:28;98154.94;;;9.49;95.10
29907;BME280;16776;50.958;10.994;2023-04-28T10:54:14;98155.63;;;9.56;95.21
29907;BME280;16776;50.958;10.994;2023-04-28T10:57:15;98149.56;;;9.58;95.40
29907;BME280;16776;50.958;10.994;2023-04-28T10:59:43;98146.25;;;9.53;95.04
29907;BME280;16776;50.958;10.994;2023-04-28T11:02:42;98145.78;;;9.68;95.14
29907;BME280;16776;50.958;10.994;2023-04-28T11:05:19;98144.06;;;9.69;94.71
29907;BME280;16776;50.958;10.994;2023-04-28T11:11:14;98144.63;;;9.78;94.93
29907;BME280;16776;50.958;10.994;2023-04-28T11:13:41;98137.88;;;9.74;95.15
29907;BME280;16776;50.958;10.994;2023-04-28T11:16:13;98142.84;;;9.80;95.61
29907;BME280;16776;50.958;10.994;2023-04-28T11:18:50;98139.19;;;9.88;95.57
29907;BME280;16776;50.958;10.994;2023-04-28T11:21:17;98135.03;;;9.83;95.50
29907;BME280;16776;50.958;10.994;2023-04-28T11:23:44;98129.97;;;9.80;95.35
29907;BME280;16776;50.958;10.994;2023-04-28T11:26:11;98127.19;;;9.88;95.82
29907;BME280;16776;50.958;10.994;2023-04-28T11:28:46;98127.75;;;9.98;95.82
29907;BME280;16776;50.958;10.994;2023-04-28T11:31:13;98118.53;;;9.91;95.88
29907;BME280;16776;50.958;10.994;2023-04-28T11:33:44;98115.00;;;9.93;96.06
29907;BME280;16776;50.958;10.994;2023-04-28T11:36:26;98115.34;;;10.09;97.07
29907;BME280;16776;50.958;10.994;2023-04-28T11:38:53;98103.47;;;10.05;96.43
29907;BME280;16776;50.958;10.994;2023-04-28T11:41:20;98099.81;;;10.12;96.49
29907;BME280;16776;50.958;10.994;2023-04-28T11:43:47;98094.53;;;10.16;96.75
29907;BME280;16776;50.958;10.994;2023-04-28T11:46:18;98086.44;;;10.27;96.77
29907;BME280;16776;50.958;10.994;2023-04-28T11:48:45;98082.22;;;10.24;96.63
29907;BME280;16776;50.958;10.994;2023-04-28T11:51:37;98085.78;;;10.45;97.17
29907;BME280;16776;50.958;10.994;2023-04-28T11:54:05;98091.97;;;10.41;97.28
29907;BME280;16776;50.958;10.994;2023-04-28T11:56:38;98088.16;;;10.51;97.54
29907;BME280;16776;50.958;10.994;2023-04-28T11:59:08;98091.13;;;10.66;98.14
29907;BME280;16776;50.958;10.994;2023-04-28T12:01:44;98076.88;;;10.80;99.03
29907;BME280;16776;50.958;10.994;2023-04-28T12:04:11;98078.38;;;10.86;98.67
29907;BME280;16776;50.958;10.994;2023-04-28T12:06:40;98074.31;;;11.02;98.45
29907;BME280;16776;50.958;10.994;2023-04-28T12:09:16;98076.56;;;11.11;98.14
29907;BME280;16776;50.958;10.994;2023-04-28T12:11:52;98076.75;;;11.28;98.66
29907;BME280;16776;50.958;10.994;2023-04-28T12:14:19;98079.16;;;11.33;98.09
29907;BME280;16776;50.958;10.994;2023-04-28T12:16:45;98083.03;;;11.44;98.16
29907;BME280;16776;50.958;10.994;2023-04-28T12:19:13;98081.69;;;11.56;98.13
29907;BME280;16776;50.958;10.994;2023-04-28T12:21:42;98080.41;;;11.68;97.98
29907;BME280;16776;50.958;10.994;2023-04-28T12:24:19;98076.44;;;11.81;97.98
29907;BME280;16776;50.958;10.994;2023-04-28T12:26:47;98072.06;;;11.83;98.05
29907;BME280;16776;50.958;10.994;2023-04-28T12:29:36;98077.34;;;12.00;97.33
29907;BME280;16776;50.958;10.994;2023-04-28T12:32:04;98074.00;;;11.98;98.38
29907;BME280;16776;50.958;10.994;2023-04-28T12:34:31;98064.25;;;12.05;98.27
29907;BME280;16776;50.958;10.994;2023-04-28T12:37:00;98062.00;;;12.17;97.98
29907;BME280;16776;50.958;10.994;2023-04-28T12:39:27;98058.31;;;12.23;98.08
29907;BME280;16776;50.958;10.994;2023-04-28T12:41:53;98060.56;;;12.31;97.88
29907;BME280;16776;50.958;10.994;2023-04-28T12:44:20;98055.16;;;12.37;97.18
29907;BME280;16776;50.958;10.994;2023-04-28T12:46:47;98049.72;;;12.43;97.93
29907;BME280;16776;50.958;10.994;2023-04-28T12:49:14;98049.44;;;12.49;97.57
29907;BME280;16776;50.958;10.994;2023-04-28T12:51:40;98044.84;;;12.55;97.71
29907;BME280;16776;50.958;10.994;2023-04-28T12:54:08;98041.97;;;12.63;96.86
29907;BME280;16776;50.958;10.994;2023-04-28T12:56:35;98039.31;;;12.65;97.64
29907;BME280;16776;50.958;10.994;2023-04-28T12:59:01;98042.59;;;12.68;97.68
29907;BME280;16776;50.958;10.994;2023-04-28T13:01:28;98042.47;;;12.71;97.72
29907;BME280;16776;50.958;10.994;2023-04-28T13:03:55;98038.00;;;12.75;97.33
29907;BME280;16776;50.958;10.994;2023-04-28T13:06:21;98037.03;;;12.77;97.54
29907;BME280;16776;50.958;10.994;2023-04-28T13:08:48;98035.22;;;12.79;97.53